createdAt,value
2022-12-31T00:00:01.544Z,94660.91
2022-12-31T00:02:28.477Z,94651.03
2022-12-31T00:04:55.487Z,94661.66
2022-12-31T00:07:22.293Z,94660.25
2022-12-31T00:09:49.020Z,94655.59
2022-12-31T00:12:15.803Z,94651.72
2022-12-31T00:14:42.560Z,94644.19
2022-12-31T00:17:09.475Z,94649.63
2022-12-31T00:19:36.459Z,94652.78
2022-12-31T00:22:03.297Z,94649.84
2022-12-31T00:24:31.219Z,94651.41
2022-12-31T00:26:58.055Z,94639.56
2022-12-31T00:29:24.951Z,94647.81
2022-12-31T00:31:51.729Z,94644.28
2022-12-31T00:34:18.543Z,94653.13
2022-12-31T00:36:46.243Z,94663.63
2022-12-31T00:39:13.243Z,94656.91
2022-12-31T00:41:40.263Z,94661.00
2022-12-31T00:44:07.193Z,94658.13
2022-12-31T00:49:00.586Z,94662.00
2022-12-31T00:51:27.913Z,94666.78
2022-12-31T00:53:55.955Z,94676.16
2022-12-31T00:56:25.862Z,94672.97
2022-12-31T00:58:52.756Z,94675.03
2022-12-31T01:01:21.758Z,94686.13
2022-12-31T01:03:51.207Z,94671.06
2022-12-31T01:06:18.942Z,94682.56
2022-12-31T01:08:48.290Z,94683.06
2022-12-31T01:11:24.053Z,94682.97
2022-12-31T01:14:16.867Z,94686.84
2022-12-31T01:16:46.845Z,94685.00
2022-12-31T01:19:17.205Z,94681.13
2022-12-31T01:21:45.304Z,94686.31
2022-12-31T01:24:12.806Z,94697.75
2022-12-31T01:26:40.048Z,94689.47
2022-12-31T01:29:07.528Z,94699.53
2022-12-31T01:31:34.949Z,94703.13
2022-12-31T01:34:02.177Z,94698.25
2022-12-31T01:36:31.217Z,94686.50
2022-12-31T01:38:59.286Z,94694.25
2022-12-31T01:41:35.416Z,94703.22
2022-12-31T01:44:11.279Z,94699.78
2022-12-31T01:46:45.057Z,94693.25
2022-12-31T01:49:53.670Z,94697.66
2022-12-31T01:52:31.346Z,94690.81
2022-12-31T01:55:27.879Z,94701.22
2022-12-31T01:57:58.248Z,94705.72
2022-12-31T02:00:25.309Z,94704.56
2022-12-31T02:02:52.715Z,94713.34
2022-12-31T02:05:24.812Z,94702.13
2022-12-31T02:07:52.300Z,94708.53
2022-12-31T02:10:19.193Z,94700.06
2022-12-31T02:12:46.657Z,94702.25
2022-12-31T02:15:13.536Z,94711.00
2022-12-31T02:18:20.907Z,94716.47
2022-12-31T02:21:03.829Z,94710.00
2022-12-31T02:23:42.159Z,94716.66
2022-12-31T02:26:46.729Z,94709.47
2022-12-31T02:29:37.773Z,94717.47
2022-12-31T02:32:43.083Z,94724.22
2022-12-31T02:35:17.425Z,94723.06
2022-12-31T02:37:48.491Z,94730.97
2022-12-31T02:40:18.373Z,94729.41
2022-12-31T02:42:48.694Z,94733.31
2022-12-31T02:45:20.945Z,94729.06
2022-12-31T02:48:31.344Z,94731.34
2022-12-31T02:51:11.006Z,94742.13
2022-12-31T02:53:55.476Z,94735.72
2022-12-31T02:56:28.293Z,94738.44
2022-12-31T02:59:21.226Z,94739.81
2022-12-31T03:02:16.930Z,94741.34
2022-12-31T03:04:53.496Z,94737.28
2022-12-31T03:07:24.713Z,94733.28
2022-12-31T03:09:51.630Z,94737.28
2022-12-31T03:12:40.412Z,94736.91
2022-12-31T03:15:19.963Z,94728.63
2022-12-31T03:18:05.526Z,94730.84
2022-12-31T03:20:53.495Z,94723.81
2022-12-31T03:23:26.212Z,94723.69
2022-12-31T03:25:53.537Z,94724.41
2022-12-31T03:28:23.201Z,94719.25
2022-12-31T03:30:53.711Z,94719.66
2022-12-31T03:33:21.349Z,94725.31
2022-12-31T03:35:49.014Z,94723.66
2022-12-31T03:38:16.732Z,94725.59
2022-12-31T03:40:46.694Z,94724.97
2022-12-31T03:43:13.921Z,94727.41
2022-12-31T03:45:41.010Z,94724.56
2022-12-31T03:48:09.435Z,94722.31
2022-12-31T03:50:36.609Z,94732.56
2022-12-31T03:53:03.514Z,94738.38
2022-12-31T03:55:30.307Z,94744.72
2022-12-31T03:57:57.124Z,94742.19
2022-12-31T04:00:23.894Z,94735.56
2022-12-31T04:02:51.001Z,94739.03
2022-12-31T04:05:18.496Z,94741.44
2022-12-31T04:07:45.282Z,94735.28
2022-12-31T04:10:13.795Z,94736.38
2022-12-31T04:12:40.861Z,94738.09
2022-12-31T04:15:08.862Z,94736.38
2022-12-31T04:17:35.799Z,94741.84
2022-12-31T04:20:03.482Z,94743.56
2022-12-31T04:22:30.353Z,94747.63
2022-12-31T04:24:57.353Z,94740.81
2022-12-31T04:27:24.121Z,94749.03
2022-12-31T04:29:50.967Z,94752.66
2022-12-31T04:32:17.797Z,94748.66
2022-12-31T04:34:44.649Z,94754.31
2022-12-31T04:37:11.512Z,94759.25
2022-12-31T04:39:38.366Z,94755.94
2022-12-31T04:42:05.235Z,94771.88
2022-12-31T04:44:34.954Z,94770.25
2022-12-31T04:47:02.135Z,94762.06
2022-12-31T04:49:29.031Z,94764.19
2022-12-31T04:51:55.818Z,94770.97
2022-12-31T04:54:22.730Z,94769.41
2022-12-31T04:56:49.500Z,94775.16
2022-12-31T04:59:16.254Z,94771.31
2022-12-31T05:01:43.139Z,94774.94
2022-12-31T05:04:09.966Z,94777.94
2022-12-31T05:06:36.847Z,94777.09
2022-12-31T05:09:03.836Z,94782.25
2022-12-31T05:11:30.620Z,94783.34
2022-12-31T05:13:57.460Z,94791.22
2022-12-31T05:16:24.384Z,94792.81
2022-12-31T05:18:51.179Z,94801.00
2022-12-31T05:21:21.294Z,94812.22
2022-12-31T05:23:49.091Z,94812.91
2022-12-31T05:26:16.141Z,94818.56
2022-12-31T05:28:43.017Z,94811.50
2022-12-31T05:31:10.539Z,94817.03
2022-12-31T05:33:37.424Z,94820.81
2022-12-31T05:36:04.544Z,94819.72
2022-12-31T05:38:31.341Z,94811.56
2022-12-31T05:41:03.053Z,94824.13
2022-12-31T05:43:30.195Z,94819.72
2022-12-31T05:45:57.094Z,94823.25
2022-12-31T05:48:24.036Z,94821.78
2022-12-31T05:50:51.133Z,94817.16
2022-12-31T05:53:18.021Z,94815.75
2022-12-31T05:55:48.459Z,94815.66
2022-12-31T06:01:00.334Z,94814.38
2022-12-31T06:03:27.155Z,94827.25
2022-12-31T06:05:53.989Z,94829.03
2022-12-31T06:08:20.756Z,94832.38
2022-12-31T06:10:47.617Z,94831.97
2022-12-31T06:13:14.406Z,94837.78
2022-12-31T06:15:41.259Z,94834.50
2022-12-31T06:18:08.212Z,94835.31
2022-12-31T06:20:38.665Z,94837.72
2022-12-31T06:23:06.134Z,94844.75
2022-12-31T06:25:35.187Z,94846.66
2022-12-31T06:28:01.895Z,94848.63
2022-12-31T06:30:28.669Z,94848.16
2022-12-31T06:32:55.909Z,94854.56
2022-12-31T06:35:22.843Z,94853.81
2022-12-31T06:37:49.882Z,94860.50
2022-12-31T06:40:16.739Z,94857.69
2022-12-31T06:42:43.607Z,94863.53
2022-12-31T06:45:10.905Z,94870.31
2022-12-31T06:47:37.839Z,94870.06
2022-12-31T06:50:05.096Z,94869.53
2022-12-31T06:52:31.907Z,94868.53
2022-12-31T06:54:59.190Z,94887.19
2022-12-31T06:57:26.378Z,94890.09
2022-12-31T06:59:53.619Z,94897.00
2022-12-31T07:02:39.520Z,94896.38
2022-12-31T07:05:15.486Z,94889.28
2022-12-31T07:07:45.347Z,94895.13
2022-12-31T07:10:18.559Z,94901.66
2022-12-31T07:13:09.087Z,94900.16
2022-12-31T07:16:08.211Z,94896.72
2022-12-31T07:19:12.549Z,94903.31
2022-12-31T07:21:42.271Z,94896.38
2022-12-31T07:24:10.607Z,94901.75
2022-12-31T07:26:56.376Z,94903.72
2022-12-31T07:29:46.878Z,94901.13
2022-12-31T07:32:38.231Z,94907.19
2022-12-31T07:35:20.070Z,94909.97
2022-12-31T07:38:17.519Z,94904.38
2022-12-31T07:41:09.329Z,94905.75
2022-12-31T07:43:48.887Z,94914.53
2022-12-31T07:46:24.801Z,94915.28
2022-12-31T07:48:52.039Z,94919.09
2022-12-31T07:51:19.066Z,94920.25
2022-12-31T07:53:45.956Z,94916.88
2022-12-31T07:56:13.322Z,94918.88
2022-12-31T07:58:40.015Z,94917.72
2022-12-31T08:01:12.740Z,94921.06
2022-12-31T08:03:58.420Z,94916.03
2022-12-31T08:06:39.250Z,94914.22
2022-12-31T08:09:41.632Z,94907.47
2022-12-31T08:12:09.070Z,94904.00
2022-12-31T08:14:43.766Z,94911.19
2022-12-31T08:17:13.467Z,94915.44
2022-12-31T08:19:41.318Z,94916.22
2022-12-31T08:22:12.931Z,94917.69
2022-12-31T08:25:03.529Z,94918.72
2022-12-31T08:27:59.835Z,94917.47
2022-12-31T08:30:49.534Z,94902.75
2022-12-31T08:33:37.399Z,94911.97
2022-12-31T08:36:29.414Z,94907.59
2022-12-31T08:39:33.840Z,94911.50
2022-12-31T08:42:04.285Z,94916.78
2022-12-31T08:44:39.910Z,94921.16
2022-12-31T08:47:31.899Z,94909.66
2022-12-31T08:50:02.839Z,94918.53
2022-12-31T08:52:30.328Z,94913.41
2022-12-31T08:54:57.425Z,94909.00
2022-12-31T08:57:50.653Z,94911.31
2022-12-31T09:00:19.513Z,94908.03
2022-12-31T09:03:24.611Z,94907.06
2022-12-31T09:06:16.052Z,94907.97
2022-12-31T09:08:55.013Z,94907.72
2022-12-31T09:11:37.192Z,94901.66
2022-12-31T09:14:06.818Z,94897.56
2022-12-31T09:16:43.425Z,94902.09
2022-12-31T09:19:10.576Z,94901.25
2022-12-31T09:21:38.306Z,94901.44
2022-12-31T09:24:09.334Z,94897.97
2022-12-31T09:27:02.761Z,94891.22
2022-12-31T09:29:57.633Z,94890.31
2022-12-31T09:32:30.910Z,94880.44
2022-12-31T09:35:28.179Z,94885.41
2022-12-31T09:38:20.627Z,94873.75
2022-12-31T09:40:50.066Z,94870.09
2022-12-31T09:43:30.573Z,94869.69
2022-12-31T09:46:29.772Z,94860.97
2022-12-31T09:49:38.815Z,94853.66
2022-12-31T09:52:25.880Z,94857.00
2022-12-31T09:54:55.538Z,94848.44
2022-12-31T09:57:27.333Z,94841.28
2022-12-31T10:00:05.716Z,94838.66
2022-12-31T10:02:52.884Z,94841.63
2022-12-31T10:05:41.151Z,94836.84
2022-12-31T10:08:30.234Z,94834.16
2022-12-31T10:11:06.595Z,94832.84
2022-12-31T10:13:33.392Z,94837.06
2022-12-31T10:16:14.341Z,94833.47
2022-12-31T10:19:13.340Z,94827.84
2022-12-31T10:21:54.947Z,94829.72
2022-12-31T10:24:53.837Z,94819.72
2022-12-31T10:27:23.655Z,94817.78
2022-12-31T10:29:59.062Z,94815.69
2022-12-31T10:32:40.522Z,94806.38
2022-12-31T10:35:32.431Z,94812.47
2022-12-31T10:38:20.322Z,94814.31
2022-12-31T10:41:05.626Z,94799.16
2022-12-31T10:44:09.737Z,94802.91
2022-12-31T10:47:07.197Z,94799.94
2022-12-31T10:49:39.900Z,94800.06
2022-12-31T10:52:44.113Z,94799.97
2022-12-31T10:55:32.903Z,94791.50
2022-12-31T10:58:11.820Z,94797.75
2022-12-31T11:01:17.730Z,94795.56
2022-12-31T11:04:14.944Z,94802.06
2022-12-31T11:06:50.621Z,94799.50
2022-12-31T11:09:50.095Z,94802.84
2022-12-31T11:12:38.165Z,94799.44
2022-12-31T11:15:13.932Z,94809.50
2022-12-31T11:17:46.931Z,94798.63
2022-12-31T11:20:25.872Z,94797.81
2022-12-31T11:22:58.556Z,94790.16
2022-12-31T11:25:47.767Z,94787.53
2022-12-31T11:28:42.601Z,94778.88
2022-12-31T11:31:18.987Z,94780.50
2022-12-31T11:33:57.740Z,94785.94
2022-12-31T11:36:30.226Z,94790.16
2022-12-31T11:39:30.802Z,94783.31
2022-12-31T11:42:07.919Z,94779.28
2022-12-31T11:44:45.376Z,94780.69
2022-12-31T11:47:56.514Z,94775.66
2022-12-31T11:50:46.848Z,94765.59
2022-12-31T11:53:24.053Z,94769.94
2022-12-31T11:55:56.918Z,94760.94
2022-12-31T11:58:28.722Z,94767.94
2022-12-31T12:01:05.977Z,94765.13
2022-12-31T12:03:33.201Z,94773.56
2022-12-31T12:06:00.047Z,94772.38
2022-12-31T12:08:30.937Z,94770.78
2022-12-31T12:11:05.557Z,94778.41
2022-12-31T12:13:32.862Z,94780.09
2022-12-31T12:16:02.129Z,94787.25
2022-12-31T12:18:40.979Z,94787.41
2022-12-31T12:21:19.209Z,94783.00
2022-12-31T12:24:04.449Z,94780.78
2022-12-31T12:26:42.337Z,94781.84
2022-12-31T12:29:18.396Z,94785.56
2022-12-31T12:32:05.002Z,94790.75
2022-12-31T12:34:34.314Z,94783.53
2022-12-31T12:37:01.287Z,94789.47
2022-12-31T12:39:32.314Z,94791.00
2022-12-31T12:42:08.605Z,94787.78
2022-12-31T12:44:38.491Z,94792.25
2022-12-31T12:47:06.941Z,94784.03
2022-12-31T12:49:42.168Z,94792.47
2022-12-31T12:52:11.946Z,94788.22
2022-12-31T12:54:57.210Z,94787.50
2022-12-31T12:57:35.094Z,94788.28
2022-12-31T13:00:19.301Z,94794.56
2022-12-31T13:02:52.362Z,94791.81
2022-12-31T13:05:40.488Z,94794.59
2022-12-31T13:08:37.153Z,94800.50
2022-12-31T13:11:29.512Z,94789.13
2022-12-31T13:14:28.293Z,94804.16
2022-12-31T13:17:18.764Z,94812.06
2022-12-31T13:19:45.537Z,94813.97
2022-12-31T13:22:29.877Z,94822.94
2022-12-31T13:25:23.853Z,94817.06
2022-12-31T13:27:52.743Z,94822.66
2022-12-31T13:30:28.719Z,94832.19
2022-12-31T13:33:04.048Z,94822.22
2022-12-31T13:35:39.652Z,94830.97
2022-12-31T13:38:28.579Z,94831.28
2022-12-31T13:41:04.370Z,94828.50
2022-12-31T13:43:51.149Z,94819.38
2022-12-31T13:46:24.093Z,94820.38
2022-12-31T13:48:54.813Z,94830.28
2022-12-31T13:51:30.081Z,94839.34
2022-12-31T13:54:35.575Z,94838.34
2022-12-31T13:57:06.113Z,94836.66
2022-12-31T13:59:38.585Z,94836.81
2022-12-31T14:02:39.378Z,94825.84
2022-12-31T14:05:16.271Z,94830.84
2022-12-31T14:08:05.002Z,94840.28
2022-12-31T14:10:31.712Z,94840.50
2022-12-31T14:13:34.301Z,94835.91
2022-12-31T14:16:01.616Z,94842.25
2022-12-31T14:18:46.236Z,94843.47
2022-12-31T14:21:24.446Z,94843.34
2022-12-31T14:24:16.185Z,94839.47
2022-12-31T14:26:53.170Z,94845.06
2022-12-31T14:29:59.840Z,94843.22
2022-12-31T14:32:26.580Z,94830.97
2022-12-31T14:35:14.899Z,94832.66
2022-12-31T14:38:05.916Z,94830.88
2022-12-31T14:40:53.275Z,94828.13
2022-12-31T14:43:32.160Z,94835.22
2022-12-31T14:46:26.675Z,94831.28
2022-12-31T14:49:05.478Z,94835.03
2022-12-31T14:51:35.234Z,94832.13
2022-12-31T14:54:02.226Z,94836.56
2022-12-31T14:56:38.080Z,94831.28
2022-12-31T14:59:27.819Z,94836.09
2022-12-31T15:01:55.364Z,94828.31
2022-12-31T15:04:45.631Z,94834.59
2022-12-31T15:07:31.558Z,94843.69
2022-12-31T15:10:14.986Z,94853.09
2022-12-31T15:12:44.993Z,94849.34
2022-12-31T15:15:33.632Z,94848.03
2022-12-31T15:18:10.442Z,94847.22
2022-12-31T15:20:37.170Z,94859.53
2022-12-31T15:23:13.703Z,94865.22
2022-12-31T15:25:47.224Z,94858.94
2022-12-31T15:28:31.070Z,94869.19
2022-12-31T15:31:19.899Z,94865.19
2022-12-31T15:34:07.485Z,94870.84
2022-12-31T15:36:41.504Z,94872.28
2022-12-31T15:39:11.268Z,94877.09
2022-12-31T15:41:46.104Z,94869.09
2022-12-31T15:44:27.553Z,94874.72
2022-12-31T15:46:58.291Z,94877.69
2022-12-31T15:49:25.764Z,94879.16
2022-12-31T15:52:02.493Z,94878.16
2022-12-31T15:54:40.575Z,94884.00
2022-12-31T15:57:13.869Z,94884.59
2022-12-31T15:59:40.918Z,94890.03
2022-12-31T16:02:39.294Z,94881.75
2022-12-31T16:05:06.553Z,94888.38
2022-12-31T16:07:35.298Z,94879.41
2022-12-31T16:10:02.004Z,94886.97
2022-12-31T16:12:34.450Z,94892.06
2022-12-31T16:15:04.989Z,94892.56
2022-12-31T16:17:35.855Z,94904.09
2022-12-31T16:20:22.676Z,94908.41
2022-12-31T16:22:56.307Z,94911.19
2022-12-31T16:25:32.289Z,94911.69
2022-12-31T16:28:01.757Z,94913.28
2022-12-31T16:30:29.431Z,94909.13
2022-12-31T16:33:01.202Z,94922.91
2022-12-31T16:35:33.144Z,94921.72
2022-12-31T16:38:02.160Z,94929.38
2022-12-31T16:40:29.181Z,94934.66
2022-12-31T16:42:55.936Z,94940.50
2022-12-31T16:45:36.840Z,94932.75
2022-12-31T16:48:17.207Z,94935.06
2022-12-31T16:50:50.088Z,94937.75
2022-12-31T16:53:20.034Z,94936.66
2022-12-31T16:55:56.266Z,94928.47
2022-12-31T16:58:22.930Z,94939.38
2022-12-31T17:00:50.662Z,94935.84
2022-12-31T17:03:24.402Z,94936.66
2022-12-31T17:05:56.269Z,94943.69
2022-12-31T17:08:26.134Z,94936.41
2022-12-31T17:10:53.226Z,94947.34
2022-12-31T17:13:29.819Z,94962.03
2022-12-31T17:15:58.099Z,94961.22
2022-12-31T17:18:28.390Z,94961.47
2022-12-31T17:20:55.463Z,94966.19
2022-12-31T17:23:31.420Z,94962.44
2022-12-31T17:26:00.929Z,94965.81
2022-12-31T17:28:30.533Z,94976.22
2022-12-31T17:31:01.962Z,94966.72
2022-12-31T17:33:30.556Z,94972.66
2022-12-31T17:36:14.450Z,94977.25
2022-12-31T17:38:42.078Z,94967.78
2022-12-31T17:41:08.767Z,94973.09
2022-12-31T17:43:37.071Z,94972.38
2022-12-31T17:46:10.423Z,94979.94
2022-12-31T17:48:37.567Z,94980.13
2022-12-31T17:51:04.696Z,94975.63
2022-12-31T17:53:31.488Z,94982.75
2022-12-31T17:56:02.390Z,94982.47
2022-12-31T17:58:38.377Z,94975.63
2022-12-31T18:01:06.611Z,94980.41
2022-12-31T18:03:33.469Z,94981.63
2022-12-31T18:06:00.281Z,94979.59
2022-12-31T18:08:27.118Z,94978.16
2022-12-31T18:10:54.262Z,94983.56
2022-12-31T18:13:23.828Z,94979.25
2022-12-31T18:15:50.689Z,94976.28
2022-12-31T18:18:25.234Z,94974.03
2022-12-31T18:21:04.533Z,94972.06
2022-12-31T18:23:48.413Z,94962.75
2022-12-31T18:26:23.865Z,94967.97
2022-12-31T18:28:50.930Z,94976.31
2022-12-31T18:31:29.248Z,94971.22
2022-12-31T18:33:57.620Z,94973.19
2022-12-31T18:36:25.410Z,94973.31
2022-12-31T18:38:52.960Z,94977.38
2022-12-31T18:41:26.928Z,94987.94
2022-12-31T18:43:54.829Z,94993.72
2022-12-31T18:46:23.787Z,94983.13
2022-12-31T18:48:50.754Z,94986.94
2022-12-31T18:51:31.059Z,94990.78
2022-12-31T18:54:14.697Z,94995.75
2022-12-31T18:56:47.624Z,94996.25
2022-12-31T18:59:17.227Z,95001.13
2022-12-31T19:01:44.324Z,95007.06
2022-12-31T19:04:27.574Z,95007.75
2022-12-31T19:06:56.109Z,95007.88
2022-12-31T19:09:44.679Z,95012.75
2022-12-31T19:12:13.693Z,95009.38
2022-12-31T19:14:40.642Z,95007.13
2022-12-31T19:19:34.829Z,95005.81
2022-12-31T19:22:02.751Z,94998.16
2022-12-31T19:24:29.780Z,95001.44
2022-12-31T19:26:56.567Z,95003.44
2022-12-31T19:29:25.291Z,95002.44
2022-12-31T19:31:52.433Z,94999.59
2022-12-31T19:34:19.224Z,95002.81
2022-12-31T19:36:46.038Z,94999.56
2022-12-31T19:39:18.582Z,94995.00
2022-12-31T19:41:45.682Z,94986.53
2022-12-31T19:44:21.586Z,94990.53
2022-12-31T19:46:49.431Z,94994.50
2022-12-31T19:49:16.568Z,94999.94
2022-12-31T19:51:43.461Z,95002.03
2022-12-31T19:54:12.968Z,94999.25
2022-12-31T19:56:39.779Z,94996.91
2022-12-31T19:59:08.803Z,94999.94
2022-12-31T20:01:35.944Z,94997.97
2022-12-31T20:04:04.658Z,95004.09
2022-12-31T20:06:31.469Z,95002.66
2022-12-31T20:08:58.374Z,95012.34
2022-12-31T20:11:25.300Z,95011.81
2022-12-31T20:13:53.663Z,95013.91
2022-12-31T20:16:22.610Z,95022.31
2022-12-31T20:18:50.749Z,95026.28
2022-12-31T20:21:23.416Z,95033.22
2022-12-31T20:23:51.189Z,95030.47
2022-12-31T20:26:19.044Z,95034.84
2022-12-31T20:28:46.066Z,95044.50
2022-12-31T20:31:15.330Z,95039.59
2022-12-31T20:33:42.160Z,95038.78
2022-12-31T20:36:10.973Z,95037.34
2022-12-31T20:38:37.730Z,95042.88
2022-12-31T20:41:09.250Z,95032.56
2022-12-31T20:43:36.518Z,95040.00
2022-12-31T20:46:16.302Z,95030.38
2022-12-31T20:48:44.358Z,95029.28
2022-12-31T20:51:12.208Z,95025.56
2022-12-31T20:53:39.129Z,95022.94
2022-12-31T20:56:07.046Z,95027.63
2022-12-31T20:58:34.531Z,95023.19
2022-12-31T21:01:01.572Z,95028.94
2022-12-31T21:04:03.804Z,95015.66
2022-12-31T21:06:15.855Z,95015.47
2022-12-31T21:08:43.172Z,95010.09
2022-12-31T21:11:29.044Z,95008.72
2022-12-31T21:13:58.697Z,95006.19
2022-12-31T21:16:26.560Z,94997.09
2022-12-31T21:18:54.281Z,94999.09
2022-12-31T21:21:21.625Z,94995.94
2022-12-31T21:23:48.431Z,95005.56
2022-12-31T21:26:15.540Z,95012.00
2022-12-31T21:28:42.529Z,95012.84
2022-12-31T21:31:12.032Z,95008.56
2022-12-31T21:33:39.066Z,95020.28
2022-12-31T21:36:06.056Z,95010.00
2022-12-31T21:38:36.208Z,95018.75
2022-12-31T21:41:04.230Z,95018.84
2022-12-31T21:43:31.074Z,95020.63
2022-12-31T21:46:05.152Z,95020.28
2022-12-31T21:48:32.296Z,95016.75
2022-12-31T21:51:08.037Z,95009.19
2022-12-31T21:53:37.247Z,95012.09
2022-12-31T21:56:16.118Z,95009.56
2022-12-31T21:59:08.051Z,95015.28
2022-12-31T22:01:53.724Z,95019.94
2022-12-31T22:04:51.626Z,95010.38
2022-12-31T22:07:07.599Z,95017.81
2022-12-31T22:09:34.511Z,95019.66
2022-12-31T22:12:01.324Z,95021.03
2022-12-31T22:14:28.076Z,95018.28
2022-12-31T22:16:54.931Z,95016.22
2022-12-31T22:19:21.682Z,95020.38
2022-12-31T22:21:48.537Z,95015.19
2022-12-31T22:24:15.219Z,95022.63
2022-12-31T22:26:46.513Z,95025.03
2022-12-31T22:29:13.765Z,95028.94
2022-12-31T22:31:40.673Z,95031.91
2022-12-31T22:34:07.591Z,95039.34
2022-12-31T22:36:35.022Z,95035.81
2022-12-31T22:39:01.727Z,95036.44
2022-12-31T22:41:29.078Z,95038.06
2022-12-31T22:44:03.541Z,95036.63
2022-12-31T22:46:31.934Z,95035.31
2022-12-31T22:48:59.890Z,95042.13
2022-12-31T22:51:54.947Z,95042.69
2022-12-31T22:54:14.581Z,95048.50
2022-12-31T22:56:41.615Z,95045.31
2022-12-31T22:59:09.328Z,95035.25
2022-12-31T23:01:36.498Z,95037.31
2022-12-31T23:04:03.876Z,95035.59
2022-12-31T23:06:30.955Z,95036.41
2022-12-31T23:09:16.198Z,95040.22
2022-12-31T23:11:43.630Z,95041.03
2022-12-31T23:14:34.404Z,95050.28
2022-12-31T23:17:30.253Z,95048.06
2022-12-31T23:20:18.196Z,95049.16
2022-12-31T23:23:04.060Z,95036.78
2022-12-31T23:25:41.873Z,95034.75
2022-12-31T23:28:11.391Z,95043.38
2022-12-31T23:30:39.539Z,95029.44
2022-12-31T23:33:07.415Z,95037.00
2022-12-31T23:35:34.475Z,95033.38
2022-12-31T23:38:01.305Z,95026.09
2022-12-31T23:40:34.398Z,95025.38
2022-12-31T23:43:05.590Z,95022.81
2022-12-31T23:45:33.678Z,95025.94
2022-12-31T23:48:00.725Z,95028.56
2022-12-31T23:50:27.587Z,95023.06
2022-12-31T23:52:54.472Z,95022.59
2022-12-31T23:55:21.519Z,95026.03
2022-12-31T23:57:48.274Z,95038.84
